Thunder radar more information blitzortung!


Rain radar more information rain snow radar


Visit our other weather sites:

Template documentation
and downloads

And another site



No particular awareness of the weather is required.    There are no Weather-warnings

Nearby METAR Reports

   
LEBL - Barcelona Airpor, Spain
Distance from station: SSE 30 km
Updated: 21-02-2018 14:00
Few Clouds  
Few Clouds  
   Wind: WNW 20.4 km/h
Wind: WNW 20.4 km/h
Temperature: 14°C
Dew Point: 7°C
Humidity: 63%
Barometer: 1006 hPa
Clouds: Few Clouds
Visibility: More than 10 km
Cloud details: Few Clouds 2500 ft
LEBL 211300Z 29011KT 9999 FEW025 14/07 Q1006 NOSIG
LELL - Sabadell, Spain
Distance from station: WNW 14 km
Updated: 21-02-2018 14:00
Clear  
Clear  
   Wind: North 20.4 km/h
Wind: North 20.4 km/h
Temperature: 15°C
Dew Point: -5°C
Humidity: 25%
Barometer: 1006 hPa
Visibility: More than 10 km
Cloud details: Clear ft
LELL 211300Z 35011KT 290V060 CAVOK 15/M05 Q1006
LEGE - Girona/Costa Bra, Spain
Distance from station: NE 65 km
Updated: 21-02-2018 14:00
Clear  
Clear  
   Wind: NNE 38.9 km/h<br />Gust to 38.9 km/h
Wind: NNE 38.9 km/h
Gust to 38.9 km/h
Temperature: 10°C
Wind Chill: 6°C
Dew Point: -4°C
Humidity: 37%
Barometer: 1008 hPa
Visibility: More than 10 km
Cloud details: Clear ft
LEGE 211300Z 03021G31KT CAVOK 10/M04 Q1008
LERS - Reus (civ/Mil), Spain
Distance from station: WSW 96 km
Updated: 21-02-2018 14:00
Partly Cloudy  
Partly Cloudy  
   Wind: SE 9.3 km/h
Wind: SE 9.3 km/h
Temperature: 13°C
Dew Point: 5°C
Humidity: 59%
Barometer: 1006 hPa
Clouds: Partly Cloudy
Visibility: More than 10 km
Cloud details: Few Clouds 4600 ft,
Partly Cloudy 6000 ft
LERS 211300Z 14005KT 100V190 9999 FEW046 SCT060TCU 13/05 Q1006
LESU - Pirineus/La Seu, Spain
Distance from station: NW 121 km
Updated: 19-02-2018 18:30
NOT Current
Partly Cloudy  
Partly Cloudy  
   Wind: SW 9.3 km/h
Wind: SW 9.3 km/h
Temperature: 9°C
Wind Chill: 8°C
Dew Point: 2°C
Humidity: 62%
Barometer: 1013 hPa
Clouds: Partly Cloudy
Visibility: More than 10 km
Cloud details: Partly Cloudy 6100 ft
LESU 191730Z 23005KT 9999 SCT061 09/02 Q1013
LEDA - Lleida/Alguaire, Spain
Distance from station: WNW 146 km
Updated: 18-02-2018 17:30
NOT Current
Few Clouds  
Few Clouds  
   Wind: West 9.3 km/h
Wind: West 9.3 km/h
Temperature: 12°C
Dew Point: 0°C
Humidity: 44%
Barometer: 1019 hPa
Clouds: Few Clouds
Visibility: More than 10 km
Cloud details: Few Clouds 3500 ft
LEDA 181630Z 26005KT 9999 FEW035 12/M00 Q1019
LFMP - Perpignan/Rivesa, France
Distance from station: NNE 150 km
Updated: 21-02-2018 14:00
Mostly Cloudy  
Mostly Cloudy  
   Wind: NNW 25.9 km/h
Wind: NNW 25.9 km/h
Temperature: 10°C
Wind Chill: 7°C
Dew Point: -4°C
Humidity: 37%
Barometer: 1010 hPa
Clouds: Mostly Cloudy
Visibility: More than 10 km
Cloud details: Mostly Cloudy 5800 ft
LFMP 211300Z AUTO 33014KT 9999 BKN058 10/M04 Q1010 TEMPO 32020G30KT
LEPA - Palma De Mallorca, Spain
Distance from station: S 216 km
Updated: 21-02-2018 14:00
Mostly Cloudy  
Mostly Cloudy  
   Wind: NNE 14.8 km/h
Wind: NNE 14.8 km/h
Temperature: 8°C
Wind Chill: 6°C
Dew Point: 5°C
Humidity: 82%
Barometer: 1006 hPa
Clouds: Mostly Cloudy
Visibility: More than 10 km
Cloud details: Few Clouds 2000 ft,
Mostly Cloudy 4500 ft
LEPA 211300Z 03008KT 360V060 9999 FEW020 BKN045 08/05 Q1006 NOSIG
 

Script developed by  Saratoga-weather.org Adapted for the template by  Weerstation Leuven

You find our weather info also at:

Weather Underground

AWEKAS